Flight Track Log - Related Links

Times and Time Zones

All times are in EDT time to prevent confusion due to time zone crossing. See the N36276 flight status page for this flight to view local times or setup timezone preferences in your user account.

Time Position Orientation Groundspeed Altitude Reporting Facility
EDT Latitude Longitude Course Direction KTS MPH feet Rate Location/Type
Sat 04:03:32 PM 44.3771 -88.1391 188° South  Level FlightAware Approximate
Sat 04:04:32 PM 44.3577 -88.1407 188° South  Level FlightAware Approximate
Sat 04:05:32 PM 44.3399 -88.1345 192° South  Level FlightAware Approximate
Sat 04:06:32 PM 44.3205 -88.1363 194° South  Level FlightAware Approximate
Sat 04:07:32 PM 44.3010 -88.1381 197° South  Level FlightAware Approximate
Sat 04:08:32 PM 44.2816 -88.1399 202° Southwest  Level FlightAware Approximate
Sat 04:09:32 PM 44.2622 -88.1417 212° Southwest  Level FlightAware Approximate
Sat 04:10:22 PM 44.2333 -88.1667 185° South 96 110 3,800  Level KMKE
Sat 04:15:34 PM 44.0833 -88.1833 180° South 100 115 4,000 16 Climbing KMKE
Sat 04:16:34 PM 44.0667 -88.1833 180° South 98 113 3,900 -50 Descending KMKE
Sat 04:17:35 PM 44.0333 -88.1833 200° South 101 116 3,900 50 Level KMKE
Sat 04:18:35 PM 44.0000 -88.2000 180° South 101 116 4,000 50 Climbing KMKE
Sat 04:19:35 PM 43.9833 -88.2000 180° South 101 116 4,000  Level KMKE
Sat 04:20:35 PM 43.9500 -88.2000 180° South 100 115 4,000  Level KMKE
Sat 04:21:35 PM 43.9167 -88.2000 200° South 101 116 4,000  Level KMKE
Sat 04:22:41 PM 43.8833 -88.2167 144° Southeast 101 116 4,000  Level KMKE
Sat 04:23:41 PM 43.8667 -88.2000 180° South 103 119 4,000  Level KMKE
Sat 04:24:41 PM 43.8333 -88.2000 200° South 104 120 4,000  Level KMKE
Sat 04:25:41 PM 43.8000 -88.2167 180° South 105 121 4,000  Level KMKE
Sat 04:26:41 PM 43.7833 -88.2167 180° South 102 117 4,000  Level KMKE
Sat 04:27:41 PM 43.7500 -88.2167 180° South 104 120 4,000  Level KMKE
Sat 04:28:41 PM 43.7167 -88.2167 180° South 100 115 4,000  Level KMKE
Sat 04:29:41 PM 43.7000 -88.2167 180° South 100 115 4,000  Level KMKE
Sat 04:30:41 PM 43.6667 -88.2167 180° South 110 127 4,000  Level KMKE
Sat 04:31:41 PM 43.6333 -88.2167 180° South 102 117 4,000  Level KMKE
Sat 04:32:35 PM 43.6167 -88.2167 180° South 111 128 4,000  Level KMKE
Sat 04:33:35 PM 43.5833 -88.2167 200° South 105 121 4,000  Level KMKE
Sat 04:34:35 PM 43.5500 -88.2333 180° South 104 120 4,000  Level KMKE
Sat 04:35:35 PM 43.5167 -88.2333 180° South 105 121 4,000  Level KMKE
Sat 04:36:35 PM 43.5000 -88.2333 180° South 104 120 4,000  Level KMKE
Sat 04:37:35 PM 43.4667 -88.2333 200° South 105 121 4,000 -50 Level KMKE
Sat 04:38:35 PM 43.4333 -88.2500 180° South 105 121 3,900 -50 Descending KMKE
Sat 04:39:35 PM 43.4000 -88.2500 180° South 105 121 3,900 50 Level KMKE
Sat 04:40:35 PM 43.3833 -88.2500 180° South 104 120 4,000 50 Climbing KMKE
Sat 04:41:36 PM 43.3500 -88.2500 180° South 104 120 4,000  Level KMKE
Sat 04:42:36 PM 43.3167 -88.2500 216° Southwest 103 119 4,000 -100 Level KMKE
Sat 04:43:36 PM 43.3000 -88.2667 180° South 104 120 3,800 -350 Descending KMKE
Sat 04:44:36 PM 43.2667 -88.2667 236° Southwest 116 133 3,300 -450 Descending KMKE
Sat 04:45:36 PM 43.2500 -88.3000 216° Southwest 109 125 2,900 -190 Descending KMKE
Sat 04:46:42 PM 43.2167 -88.3333 236° Southwest 109 125 2,900  Level KMKE
Sat 04:47:42 PM 43.2000 -88.3667 236° Southwest 106 122 2,900 50 Level KMKE
Sat 04:48:42 PM 43.1833 -88.4000 200° South 103 119 3,000 50 Climbing KMKE
Sat 04:49:42 PM 43.1500 -88.4167 216° Southwest 100 115 3,000  Level KMKE
Sat 04:50:42 PM 43.1333 -88.4333 180° South 104 120 3,000  Level KMKE
Sat 04:51:42 PM 43.1000 -88.4333 180° South 105 121 3,000  Level KMKE
Sat 04:52:42 PM 43.0833 -88.4333 124° Southeast 102 117 3,000  Level KMKE
Sat 04:53:42 PM 43.0667 -88.4000 90° East 99 114 3,000 -100 Level KMKE
Sat 04:54:42 PM 43.0667 -88.3667 124° Southeast 94 108 2,800 -450 Descending KMKE
Sat 04:55:42 PM 43.0500 -88.3333 90° East 93 107 2,100 -595 Descending KMKE
Sat 04:56:43 PM 43.0500 -88.3000 90° East 90 104 1,600 -446 Descending KMKE
Sat 04:57:43 PM 43.0500 -88.2667 113° Southeast 89 102 1,200 -400 Descending KMKE
Sat 05:05:32 PM 42.9667 -87.9930 291° West  Level Estimated
Sat 05:06:32 PM 43.0333 -88.2333 341° North  Level FlightAware Approximate
Sat 05:07:32 PM 43.0595 -88.2460 161° South  Level Estimated
Sat 05:08:32 PM 43.0333 -88.2333 341° North  Level FlightAware Approximate
Sat 05:09:32 PM 43.0595 -88.2460 161° South  Level Estimated
Sat 05:10:32 PM 43.0333 -88.2333 341° North  Level FlightAware Approximate
Sat 05:11:32 PM 43.0595 -88.2460 161° South  Level Estimated
Sat 05:12:32 PM 43.0333 -88.2333 341° North  Level FlightAware Approximate
Sat 05:13:32 PM 43.0595 -88.2460 341° North  Level Estimated

Login

Don't have an account? Register now (free) for customized features, flight alerts, and more!